KAFN/AFN METAR and TAF weather

Enter ICAO airport designator
Station Type Date Time Source
KAFN METAR 2019/06/20 07:31 UTC NOAA

KAFN 200731Z AUTO 00000KT 10SM BKN009 OVC032 19/17 A2975 RMK AO2 T01890167


Station Type Date Time Source
KAFN Decoded METAR 2019/06/20 07:31 UTC NOAA

JAFFREY MUNI-SILVER RANCH, NH, United States (KAFN) 42-48N 72-00W 313M
Jun 20, 2019 - 03:31 AM EDT / 2019.06.20 0731 UTC
Wind: Calm:0
Visibility: 10 mile(s):0
Sky conditions: overcast
Temperature: 66.0 F (18.9 C)
Dew Point: 62.1 F (16.7 C)
Relative Humidity: 87%
Pressure (altimeter): 29.75 in. Hg (1007 hPa)
ob: KAFN 200731Z AUTO 00000KT 10SM BKN009 OVC032 19/17 A2975 RMK AO2 T01890167
cycle: 7

Station Type Date Time Source
KAFN TAF UTC NOAA

Error!

Example: see airport list